sensor_id;sensor_type;location;lat;lon;timestamp;temperature;humidity
9057;DHT22;4563;54.756;9.400;2022-11-02T00:00:57;15.10;74.40
9057;DHT22;4563;54.756;9.400;2022-11-02T00:03:25;15.00;74.60
9057;DHT22;4563;54.756;9.400;2022-11-02T00:05:55;15.00;74.30
9057;DHT22;4563;54.756;9.400;2022-11-02T00:08:26;15.00;74.10
9057;DHT22;4563;54.756;9.400;2022-11-02T00:10:53;15.00;74.20
9057;DHT22;4563;54.756;9.400;2022-11-02T00:13:21;15.00;74.20
9057;DHT22;4563;54.756;9.400;2022-11-02T00:15:48;15.00;74.10
9057;DHT22;4563;54.756;9.400;2022-11-02T00:18:17;15.00;74.20
9057;DHT22;4563;54.756;9.400;2022-11-02T00:20:46;15.00;74.40
9057;DHT22;4563;54.756;9.400;2022-11-02T00:23:15;14.90;74.40
9057;DHT22;4563;54.756;9.400;2022-11-02T00:25:44;14.90;74.10
9057;DHT22;4563;54.756;9.400;2022-11-02T00:28:11;14.90;74.30
9057;DHT22;4563;54.756;9.400;2022-11-02T00:30:39;15.00;74.20
9057;DHT22;4563;54.756;9.400;2022-11-02T00:33:06;15.00;74.20
9057;DHT22;4563;54.756;9.400;2022-11-02T00:35:33;14.90;74.00
9057;DHT22;4563;54.756;9.400;2022-11-02T00:38:00;14.90;73.80
9057;DHT22;4563;54.756;9.400;2022-11-02T00:40:28;14.90;73.90
9057;DHT22;4563;54.756;9.400;2022-11-02T00:42:55;14.90;74.00
9057;DHT22;4563;54.756;9.400;2022-11-02T00:45:22;14.90;73.90
9057;DHT22;4563;54.756;9.400;2022-11-02T00:47:49;14.90;74.00
9057;DHT22;4563;54.756;9.400;2022-11-02T00:50:16;14.90;73.90
9057;DHT22;4563;54.756;9.400;2022-11-02T00:52:42;14.90;74.00
9057;DHT22;4563;54.756;9.400;2022-11-02T00:55:10;14.90;74.00
9057;DHT22;4563;54.756;9.400;2022-11-02T00:57:38;14.80;74.00
9057;DHT22;4563;54.756;9.400;2022-11-02T01:00:08;14.80;73.80
9057;DHT22;4563;54.756;9.400;2022-11-02T01:02:35;14.80;73.80
9057;DHT22;4563;54.756;9.400;2022-11-02T01:05:03;14.80;73.90
9057;DHT22;4563;54.756;9.400;2022-11-02T01:07:30;14.80;73.80
9057;DHT22;4563;54.756;9.400;2022-11-02T01:09:57;14.80;73.60
9057;DHT22;4563;54.756;9.400;2022-11-02T01:12:24;14.80;73.70
9057;DHT22;4563;54.756;9.400;2022-11-02T01:14:52;14.80;73.70
9057;DHT22;4563;54.756;9.400;2022-11-02T01:17:19;14.80;73.60
9057;DHT22;4563;54.756;9.400;2022-11-02T01:19:46;14.80;73.80
9057;DHT22;4563;54.756;9.400;2022-11-02T01:22:15;14.80;73.90
9057;DHT22;4563;54.756;9.400;2022-11-02T01:24:42;14.80;73.70
9057;DHT22;4563;54.756;9.400;2022-11-02T01:27:09;14.80;73.70
9057;DHT22;4563;54.756;9.400;2022-11-02T01:29:36;14.80;73.70
9057;DHT22;4563;54.756;9.400;2022-11-02T01:32:04;14.80;73.60
9057;DHT22;4563;54.756;9.400;2022-11-02T01:34:31;14.80;73.60
9057;DHT22;4563;54.756;9.400;2022-11-02T01:36:58;14.80;73.70
9057;DHT22;4563;54.756;9.400;2022-11-02T01:39:26;14.80;73.60
9057;DHT22;4563;54.756;9.400;2022-11-02T01:41:53;14.70;73.90
9057;DHT22;4563;54.756;9.400;2022-11-02T01:44:26;14.70;73.70
9057;DHT22;4563;54.756;9.400;2022-11-02T01:46:56;14.80;73.90
9057;DHT22;4563;54.756;9.400;2022-11-02T01:49:26;14.70;73.90
9057;DHT22;4563;54.756;9.400;2022-11-02T01:51:57;14.70;74.10
9057;DHT22;4563;54.756;9.400;2022-11-02T01:54:29;14.70;74.10
9057;DHT22;4563;54.756;9.400;2022-11-02T01:57:00;14.70;74.10
9057;DHT22;4563;54.756;9.400;2022-11-02T01:59:32;14.70;74.30
9057;DHT22;4563;54.756;9.400;2022-11-02T02:02:05;14.70;74.20
9057;DHT22;4563;54.756;9.400;2022-11-02T02:04:35;14.60;74.30
9057;DHT22;4563;54.756;9.400;2022-11-02T02:07:03;14.60;74.10
9057;DHT22;4563;54.756;9.400;2022-11-02T02:09:31;14.60;74.10
9057;DHT22;4563;54.756;9.400;2022-11-02T02:11:58;14.60;74.00
9057;DHT22;4563;54.756;9.400;2022-11-02T02:14:25;14.70;74.00
9057;DHT22;4563;54.756;9.400;2022-11-02T02:17:04;14.60;74.40
9057;DHT22;4563;54.756;9.400;2022-11-02T02:19:39;14.60;74.40
9057;DHT22;4563;54.756;9.400;2022-11-02T02:25:29;14.60;74.50
9057;DHT22;4563;54.756;9.400;2022-11-02T02:28:10;14.60;74.40
9057;DHT22;4563;54.756;9.400;2022-11-02T02:30:45;14.60;74.30
9057;DHT22;4563;54.756;9.400;2022-11-02T02:33:20;14.60;74.10
9057;DHT22;4563;54.756;9.400;2022-11-02T02:35:54;14.60;74.20
9057;DHT22;4563;54.756;9.400;2022-11-02T02:38:27;14.60;74.10
9057;DHT22;4563;54.756;9.400;2022-11-02T02:40:58;14.60;73.90
9057;DHT22;4563;54.756;9.400;2022-11-02T02:43:33;14.60;73.90
9057;DHT22;4563;54.756;9.400;2022-11-02T02:46:05;14.60;73.80
9057;DHT22;4563;54.756;9.400;2022-11-02T02:48:35;14.70;74.10
9057;DHT22;4563;54.756;9.400;2022-11-02T02:51:05;14.60;74.00
9057;DHT22;4563;54.756;9.400;2022-11-02T02:53:36;14.60;73.80
9057;DHT22;4563;54.756;9.400;2022-11-02T02:56:06;14.60;73.80
9057;DHT22;4563;54.756;9.400;2022-11-02T02:58:40;14.60;73.90
9057;DHT22;4563;54.756;9.400;2022-11-02T03:01:11;14.60;74.00
9057;DHT22;4563;54.756;9.400;2022-11-02T03:03:40;14.60;73.90
9057;DHT22;4563;54.756;9.400;2022-11-02T03:06:15;14.60;73.80
9057;DHT22;4563;54.756;9.400;2022-11-02T03:08:47;14.60;74.10
9057;DHT22;4563;54.756;9.400;2022-11-02T03:11:17;14.60;73.80
9057;DHT22;4563;54.756;9.400;2022-11-02T03:14:00;14.60;73.90
9057;DHT22;4563;54.756;9.400;2022-11-02T03:16:41;14.60;74.00
9057;DHT22;4563;54.756;9.400;2022-11-02T03:19:18;14.60;74.00
9057;DHT22;4563;54.756;9.400;2022-11-02T03:21:50;14.60;74.20
9057;DHT22;4563;54.756;9.400;2022-11-02T03:24:25;14.50;75.10
9057;DHT22;4563;54.756;9.400;2022-11-02T03:27:03;14.50;74.10
9057;DHT22;4563;54.756;9.400;2022-11-02T03:29:38;14.50;74.10
9057;DHT22;4563;54.756;9.400;2022-11-02T03:32:11;14.50;74.30
9057;DHT22;4563;54.756;9.400;2022-11-02T03:34:41;14.50;74.00
9057;DHT22;4563;54.756;9.400;2022-11-02T03:37:12;14.50;74.10
9057;DHT22;4563;54.756;9.400;2022-11-02T03:39:45;14.50;74.20
9057;DHT22;4563;54.756;9.400;2022-11-02T03:42:15;14.40;74.20
9057;DHT22;4563;54.756;9.400;2022-11-02T03:44:46;14.40;74.30
9057;DHT22;4563;54.756;9.400;2022-11-02T03:47:15;14.40;74.10
9057;DHT22;4563;54.756;9.400;2022-11-02T03:49:44;14.40;73.90
9057;DHT22;4563;54.756;9.400;2022-11-02T03:52:15;14.40;74.00
9057;DHT22;4563;54.756;9.400;2022-11-02T03:54:46;14.40;74.30
9057;DHT22;4563;54.756;9.400;2022-11-02T03:57:18;14.40;74.20
9057;DHT22;4563;54.756;9.400;2022-11-02T03:59:47;14.40;74.50
9057;DHT22;4563;54.756;9.400;2022-11-02T04:02:15;14.40;74.50
9057;DHT22;4563;54.756;9.400;2022-11-02T04:04:48;14.40;74.40
9057;DHT22;4563;54.756;9.400;2022-11-02T04:07:18;14.30;74.50
9057;DHT22;4563;54.756;9.400;2022-11-02T04:09:47;14.40;74.70
9057;DHT22;4563;54.756;9.400;2022-11-02T04:12:14;14.30;74.40
9057;DHT22;4563;54.756;9.400;2022-11-02T04:15:00;14.30;74.50
9057;DHT22;4563;54.756;9.400;2022-11-02T04:17:26;14.30;74.60
9057;DHT22;4563;54.756;9.400;2022-11-02T04:20:25;14.30;74.70
9057;DHT22;4563;54.756;9.400;2022-11-02T04:22:52;14.30;74.80
9057;DHT22;4563;54.756;9.400;2022-11-02T04:25:36;14.30;74.70
9057;DHT22;4563;54.756;9.400;2022-11-02T04:28:08;14.30;74.70
9057;DHT22;4563;54.756;9.400;2022-11-02T04:30:36;14.30;74.60
9057;DHT22;4563;54.756;9.400;2022-11-02T04:33:03;14.30;74.70
9057;DHT22;4563;54.756;9.400;2022-11-02T04:35:47;14.20;74.70
9057;DHT22;4563;54.756;9.400;2022-11-02T04:38:14;14.20;74.90
9057;DHT22;4563;54.756;9.400;2022-11-02T04:40:59;14.20;74.90
9057;DHT22;4563;54.756;9.400;2022-11-02T04:43:39;14.20;74.90
9057;DHT22;4563;54.756;9.400;2022-11-02T04:46:10;14.20;74.80
9057;DHT22;4563;54.756;9.400;2022-11-02T04:48:37;14.30;74.80
9057;DHT22;4563;54.756;9.400;2022-11-02T04:51:04;14.20;74.60
9057;DHT22;4563;54.756;9.400;2022-11-02T04:53:32;14.20;74.70
9057;DHT22;4563;54.756;9.400;2022-11-02T04:56:00;14.20;74.70
9057;DHT22;4563;54.756;9.400;2022-11-02T04:58:27;14.20;74.70
9057;DHT22;4563;54.756;9.400;2022-11-02T05:00:55;14.20;74.80
9057;DHT22;4563;54.756;9.400;2022-11-02T05:03:26;14.20;75.10
9057;DHT22;4563;54.756;9.400;2022-11-02T05:05:54;14.20;75.00
9057;DHT22;4563;54.756;9.400;2022-11-02T05:08:21;14.20;74.80
9057;DHT22;4563;54.756;9.400;2022-11-02T05:10:53;14.20;74.90
9057;DHT22;4563;54.756;9.400;2022-11-02T05:13:20;14.20;75.10
9057;DHT22;4563;54.756;9.400;2022-11-02T05:15:46;14.10;75.60
9057;DHT22;4563;54.756;9.400;2022-11-02T05:18:14;14.10;74.80
9057;DHT22;4563;54.756;9.400;2022-11-02T05:20:48;14.10;74.90
9057;DHT22;4563;54.756;9.400;2022-11-02T05:23:16;14.10;75.00
9057;DHT22;4563;54.756;9.400;2022-11-02T05:25:51;14.10;74.70
9057;DHT22;4563;54.756;9.400;2022-11-02T05:28:18;14.10;74.80
9057;DHT22;4563;54.756;9.400;2022-11-02T05:30:45;14.10;74.70
9057;DHT22;4563;54.756;9.400;2022-11-02T05:33:12;14.10;74.80
9057;DHT22;4563;54.756;9.400;2022-11-02T05:35:38;14.10;75.00
9057;DHT22;4563;54.756;9.400;2022-11-02T05:38:07;14.10;74.90
9057;DHT22;4563;54.756;9.400;2022-11-02T05:40:34;14.10;74.70
9057;DHT22;4563;54.756;9.400;2022-11-02T05:43:03;14.10;74.70
9057;DHT22;4563;54.756;9.400;2022-11-02T05:45:31;14.10;74.80
9057;DHT22;4563;54.756;9.400;2022-11-02T05:47:59;14.00;74.80
9057;DHT22;4563;54.756;9.400;2022-11-02T05:50:26;14.00;74.90
9057;DHT22;4563;54.756;9.400;2022-11-02T05:52:55;14.00;74.70
9057;DHT22;4563;54.756;9.400;2022-11-02T05:55:23;14.00;74.90
9057;DHT22;4563;54.756;9.400;2022-11-02T05:57:51;14.00;74.90
9057;DHT22;4563;54.756;9.400;2022-11-02T06:00:18;14.00;74.90
9057;DHT22;4563;54.756;9.400;2022-11-02T06:02:46;14.00;74.90
9057;DHT22;4563;54.756;9.400;2022-11-02T06:05:13;14.00;74.90
9057;DHT22;4563;54.756;9.400;2022-11-02T06:07:40;14.00;74.90
9057;DHT22;4563;54.756;9.400;2022-11-02T06:10:07;14.00;74.90
9057;DHT22;4563;54.756;9.400;2022-11-02T06:12:36;14.00;74.90
9057;DHT22;4563;54.756;9.400;2022-11-02T06:15:04;14.00;74.90
9057;DHT22;4563;54.756;9.400;2022-11-02T06:17:36;13.90;74.80
9057;DHT22;4563;54.756;9.400;2022-11-02T06:20:03;13.90;74.80
9057;DHT22;4563;54.756;9.400;2022-11-02T06:22:30;13.90;74.80
9057;DHT22;4563;54.756;9.400;2022-11-02T06:25:04;13.90;74.80
9057;DHT22;4563;54.756;9.400;2022-11-02T06:27:31;13.90;75.00
9057;DHT22;4563;54.756;9.400;2022-11-02T06:29:59;13.90;75.60
9057;DHT22;4563;54.756;9.400;2022-11-02T06:32:26;13.90;74.90
9057;DHT22;4563;54.756;9.400;2022-11-02T06:34:53;13.80;75.10
9057;DHT22;4563;54.756;9.400;2022-11-02T06:37:19;13.80;74.90
9057;DHT22;4563;54.756;9.400;2022-11-02T06:39:47;13.80;74.80
9057;DHT22;4563;54.756;9.400;2022-11-02T06:42:14;13.80;75.00
9057;DHT22;4563;54.756;9.400;2022-11-02T06:44:41;13.80;75.00
9057;DHT22;4563;54.756;9.400;2022-11-02T06:47:09;13.80;74.90
9057;DHT22;4563;54.756;9.400;2022-11-02T06:49:36;13.80;75.00
9057;DHT22;4563;54.756;9.400;2022-11-02T06:52:02;13.80;75.00
9057;DHT22;4563;54.756;9.400;2022-11-02T06:54:29;13.80;75.10
9057;DHT22;4563;54.756;9.400;2022-11-02T06:56:56;13.80;74.90
9057;DHT22;4563;54.756;9.400;2022-11-02T06:59:23;13.70;74.70
9057;DHT22;4563;54.756;9.400;2022-11-02T07:01:50;13.70;74.90
9057;DHT22;4563;54.756;9.400;2022-11-02T07:04:19;13.70;74.90
9057;DHT22;4563;54.756;9.400;2022-11-02T07:06:47;13.70;74.90
9057;DHT22;4563;54.756;9.400;2022-11-02T07:09:13;13.70;74.90
9057;DHT22;4563;54.756;9.400;2022-11-02T07:11:40;13.70;74.80
9057;DHT22;4563;54.756;9.400;2022-11-02T07:14:07;13.70;75.00
9057;DHT22;4563;54.756;9.400;2022-11-02T07:16:34;13.70;75.10
9057;DHT22;4563;54.756;9.400;2022-11-02T07:19:01;13.70;74.90
9057;DHT22;4563;54.756;9.400;2022-11-02T07:21:30;13.80;75.00
9057;DHT22;4563;54.756;9.400;2022-11-02T07:23:58;13.80;74.80
9057;DHT22;4563;54.756;9.400;2022-11-02T07:26:24;13.80;74.90
9057;DHT22;4563;54.756;9.400;2022-11-02T07:28:52;13.80;74.70
9057;DHT22;4563;54.756;9.400;2022-11-02T07:31:19;13.80;74.70
9057;DHT22;4563;54.756;9.400;2022-11-02T07:33:45;13.80;74.70
9057;DHT22;4563;54.756;9.400;2022-11-02T07:36:13;13.80;74.80
9057;DHT22;4563;54.756;9.400;2022-11-02T07:38:42;13.80;74.70
9057;DHT22;4563;54.756;9.400;2022-11-02T07:41:09;13.80;74.70
9057;DHT22;4563;54.756;9.400;2022-11-02T07:43:35;13.80;74.70
9057;DHT22;4563;54.756;9.400;2022-11-02T07:46:02;13.90;74.80
9057;DHT22;4563;54.756;9.400;2022-11-02T07:48:30;13.90;74.80
9057;DHT22;4563;54.756;9.400;2022-11-02T07:50:57;13.90;74.90
9057;DHT22;4563;54.756;9.400;2022-11-02T07:53:24;13.90;74.90
9057;DHT22;4563;54.756;9.400;2022-11-02T07:55:53;13.90;74.90
9057;DHT22;4563;54.756;9.400;2022-11-02T07:58:20;14.00;75.00
9057;DHT22;4563;54.756;9.400;2022-11-02T08:00:46;13.90;74.90
9057;DHT22;4563;54.756;9.400;2022-11-02T08:03:14;13.90;74.90
9057;DHT22;4563;54.756;9.400;2022-11-02T08:05:41;13.90;74.90
9057;DHT22;4563;54.756;9.400;2022-11-02T08:08:11;14.00;75.00
9057;DHT22;4563;54.756;9.400;2022-11-02T08:10:39;14.00;75.10
9057;DHT22;4563;54.756;9.400;2022-11-02T08:13:07;14.00;75.00
9057;DHT22;4563;54.756;9.400;2022-11-02T08:15:35;14.00;75.10
9057;DHT22;4563;54.756;9.400;2022-11-02T08:18:03;14.00;75.00
9057;DHT22;4563;54.756;9.400;2022-11-02T08:20:32;14.10;75.10
9057;DHT22;4563;54.756;9.400;2022-11-02T08:23:00;14.10;75.00
9057;DHT22;4563;54.756;9.400;2022-11-02T08:25:27;14.10;75.00
9057;DHT22;4563;54.756;9.400;2022-11-02T08:27:55;14.10;75.00
9057;DHT22;4563;54.756;9.400;2022-11-02T08:30:25;14.10;75.00
9057;DHT22;4563;54.756;9.400;2022-11-02T08:32:52;14.10;75.00
9057;DHT22;4563;54.756;9.400;2022-11-02T08:35:19;14.20;75.10
9057;DHT22;4563;54.756;9.400;2022-11-02T08:37:52;14.20;75.10
9057;DHT22;4563;54.756;9.400;2022-11-02T08:40:19;14.20;75.10
9057;DHT22;4563;54.756;9.400;2022-11-02T08:42:46;14.20;75.10
9057;DHT22;4563;54.756;9.400;2022-11-02T08:45:13;14.20;75.10
9057;DHT22;4563;54.756;9.400;2022-11-02T08:47:41;14.20;75.10
9057;DHT22;4563;54.756;9.400;2022-11-02T08:50:09;14.20;75.10
9057;DHT22;4563;54.756;9.400;2022-11-02T08:52:36;14.30;75.20
9057;DHT22;4563;54.756;9.400;2022-11-02T08:55:03;14.20;75.80
9057;DHT22;4563;54.756;9.400;2022-11-02T08:57:30;14.30;75.20
9057;DHT22;4563;54.756;9.400;2022-11-02T08:59:57;14.30;75.20
9057;DHT22;4563;54.756;9.400;2022-11-02T09:02:24;14.30;75.20
9057;DHT22;4563;54.756;9.400;2022-11-02T09:04:52;14.30;75.20
9057;DHT22;4563;54.756;9.400;2022-11-02T09:07:19;14.30;75.20
9057;DHT22;4563;54.756;9.400;2022-11-02T09:09:46;14.30;75.20
9057;DHT22;4563;54.756;9.400;2022-11-02T09:12:13;14.30;75.20
9057;DHT22;4563;54.756;9.400;2022-11-02T09:14:39;14.30;75.20
9057;DHT22;4563;54.756;9.400;2022-11-02T09:17:07;14.30;75.20
9057;DHT22;4563;54.756;9.400;2022-11-02T09:19:34;14.30;75.00
9057;DHT22;4563;54.756;9.400;2022-11-02T09:22:02;14.30;75.20
9057;DHT22;4563;54.756;9.400;2022-11-02T09:24:28;14.30;75.20
9057;DHT22;4563;54.756;9.400;2022-11-02T09:26:55;14.30;75.20
9057;DHT22;4563;54.756;9.400;2022-11-02T09:29:22;14.40;75.40
9057;DHT22;4563;54.756;9.400;2022-11-02T09:31:49;14.40;75.30
9057;DHT22;4563;54.756;9.400;2022-11-02T09:34:16;14.40;75.30
9057;DHT22;4563;54.756;9.400;2022-11-02T09:36:43;14.30;75.20
9057;DHT22;4563;54.756;9.400;2022-11-02T09:39:11;14.30;75.20
9057;DHT22;4563;54.756;9.400;2022-11-02T09:41:41;14.30;75.20
9057;DHT22;4563;54.756;9.400;2022-11-02T09:44:11;14.30;75.20
9057;DHT22;4563;54.756;9.400;2022-11-02T09:46:41;14.20;75.10
9057;DHT22;4563;54.756;9.400;2022-11-02T09:49:11;14.20;75.10
9057;DHT22;4563;54.756;9.400;2022-11-02T09:51:44;14.20;75.10
9057;DHT22;4563;54.756;9.400;2022-11-02T09:54:17;14.20;75.10
9057;DHT22;4563;54.756;9.400;2022-11-02T09:56:46;14.20;75.20
9057;DHT22;4563;54.756;9.400;2022-11-02T09:59:15;14.20;75.10
9057;DHT22;4563;54.756;9.400;2022-11-02T10:01:57;14.10;75.10
9057;DHT22;4563;54.756;9.400;2022-11-02T10:04:47;14.10;75.20
9057;DHT22;4563;54.756;9.400;2022-11-02T10:07:24;14.10;75.30
9057;DHT22;4563;54.756;9.400;2022-11-02T10:09:56;14.10;75.40
9057;DHT22;4563;54.756;9.400;2022-11-02T10:12:34;14.10;75.40
9057;DHT22;4563;54.756;9.400;2022-11-02T10:15:09;14.10;75.50
9057;DHT22;4563;54.756;9.400;2022-11-02T10:17:37;14.10;75.60
9057;DHT22;4563;54.756;9.400;2022-11-02T10:20:14;14.10;75.60
9057;DHT22;4563;54.756;9.400;2022-11-02T10:22:44;14.10;75.70
9057;DHT22;4563;54.756;9.400;2022-11-02T10:25:16;14.10;75.80
9057;DHT22;4563;54.756;9.400;2022-11-02T10:27:44;14.10;75.80
9057;DHT22;4563;54.756;9.400;2022-11-02T10:30:16;14.00;75.80
9057;DHT22;4563;54.756;9.400;2022-11-02T10:32:46;14.10;75.90
9057;DHT22;4563;54.756;9.400;2022-11-02T10:35:18;14.10;75.90
9057;DHT22;4563;54.756;9.400;2022-11-02T10:37:58;14.10;75.90
9057;DHT22;4563;54.756;9.400;2022-11-02T10:41:02;14.10;76.00
9057;DHT22;4563;54.756;9.400;2022-11-02T10:43:45;14.10;75.90
9057;DHT22;4563;54.756;9.400;2022-11-02T10:46:32;14.00;75.80
9057;DHT22;4563;54.756;9.400;2022-11-02T10:49:09;14.00;76.60
9057;DHT22;4563;54.756;9.400;2022-11-02T10:51:38;14.00;75.90
9057;DHT22;4563;54.756;9.400;2022-11-02T10:54:11;14.00;76.00
9057;DHT22;4563;54.756;9.400;2022-11-02T10:56:41;14.00;76.70
9057;DHT22;4563;54.756;9.400;2022-11-02T10:59:14;14.00;76.00
9057;DHT22;4563;54.756;9.400;2022-11-02T11:01:45;14.00;76.00
9057;DHT22;4563;54.756;9.400;2022-11-02T11:04:20;14.00;76.00
9057;DHT22;4563;54.756;9.400;2022-11-02T11:06:48;14.00;76.70
9057;DHT22;4563;54.756;9.400;2022-11-02T11:09:16;14.00;76.00
9057;DHT22;4563;54.756;9.400;2022-11-02T11:11:53;14.00;76.00
9057;DHT22;4563;54.756;9.400;2022-11-02T11:14:22;14.00;76.00
9057;DHT22;4563;54.756;9.400;2022-11-02T11:16:51;14.00;75.90
9057;DHT22;4563;54.756;9.400;2022-11-02T11:19:21;13.90;75.90
9057;DHT22;4563;54.756;9.400;2022-11-02T11:21:49;13.90;75.90
9057;DHT22;4563;54.756;9.400;2022-11-02T11:24:22;13.90;75.90
9057;DHT22;4563;54.756;9.400;2022-11-02T11:29:53;13.80;75.70
9057;DHT22;4563;54.756;9.400;2022-11-02T11:32:23;13.80;75.80
9057;DHT22;4563;54.756;9.400;2022-11-02T11:34:56;13.80;75.80
9057;DHT22;4563;54.756;9.400;2022-11-02T11:37:24;13.80;75.80
9057;DHT22;4563;54.756;9.400;2022-11-02T11:39:54;13.80;75.90
9057;DHT22;4563;54.756;9.400;2022-11-02T11:42:25;13.80;75.90
9057;DHT22;4563;54.756;9.400;2022-11-02T11:44:57;13.70;75.80
9057;DHT22;4563;54.756;9.400;2022-11-02T11:47:26;13.70;75.90
9057;DHT22;4563;54.756;9.400;2022-11-02T11:49:54;13.70;75.80
9057;DHT22;4563;54.756;9.400;2022-11-02T11:52:25;13.70;75.90
9057;DHT22;4563;54.756;9.400;2022-11-02T11:54:56;13.70;75.90
9057;DHT22;4563;54.756;9.400;2022-11-02T11:57:26;13.70;76.00
9057;DHT22;4563;54.756;9.400;2022-11-02T11:59:54;13.70;76.00
9057;DHT22;4563;54.756;9.400;2022-11-02T12:02:25;13.70;76.00
9057;DHT22;4563;54.756;9.400;2022-11-02T12:05:01;13.70;76.00
9057;DHT22;4563;54.756;9.400;2022-11-02T12:10:19;13.70;76.10
9057;DHT22;4563;54.756;9.400;2022-11-02T12:13:02;13.70;76.10
9057;DHT22;4563;54.756;9.400;2022-11-02T12:15:41;13.70;76.00
9057;DHT22;4563;54.756;9.400;2022-11-02T12:18:25;13.70;76.10
9057;DHT22;4563;54.756;9.400;2022-11-02T12:21:06;13.70;76.10
9057;DHT22;4563;54.756;9.400;2022-11-02T12:23:48;13.70;76.00
9057;DHT22;4563;54.756;9.400;2022-11-02T12:26:26;13.70;76.00
9057;DHT22;4563;54.756;9.400;2022-11-02T12:29:03;13.70;76.10
9057;DHT22;4563;54.756;9.400;2022-11-02T12:31:35;13.70;76.10
9057;DHT22;4563;54.756;9.400;2022-11-02T12:34:25;13.70;76.10
9057;DHT22;4563;54.756;9.400;2022-11-02T12:37:04;13.70;76.10
9057;DHT22;4563;54.756;9.400;2022-11-02T12:39:47;13.70;76.20
9057;DHT22;4563;54.756;9.400;2022-11-02T12:42:25;13.70;76.30
9057;DHT22;4563;54.756;9.400;2022-11-02T12:45:03;13.70;76.30
9057;DHT22;4563;54.756;9.400;2022-11-02T12:47:47;13.70;76.30
9057;DHT22;4563;54.756;9.400;2022-11-02T12:50:23;13.80;76.40
9057;DHT22;4563;54.756;9.400;2022-11-02T12:53:02;13.80;76.40
9057;DHT22;4563;54.756;9.400;2022-11-02T12:55:34;13.80;76.40
9057;DHT22;4563;54.756;9.400;2022-11-02T12:58:05;13.80;76.50
9057;DHT22;4563;54.756;9.400;2022-11-02T13:00:37;13.80;76.50
9057;DHT22;4563;54.756;9.400;2022-11-02T13:03:15;13.80;76.40
9057;DHT22;4563;54.756;9.400;2022-11-02T13:05:50;13.80;76.30
9057;DHT22;4563;54.756;9.400;2022-11-02T13:08:24;13.80;76.50
9057;DHT22;4563;54.756;9.400;2022-11-02T13:10:56;13.80;76.40
9057;DHT22;4563;54.756;9.400;2022-11-02T13:13:28;13.80;76.40
9057;DHT22;4563;54.756;9.400;2022-11-02T13:15:59;13.80;76.30
9057;DHT22;4563;54.756;9.400;2022-11-02T13:18:29;13.80;76.30
9057;DHT22;4563;54.756;9.400;2022-11-02T13:21:01;13.80;76.30
9057;DHT22;4563;54.756;9.400;2022-11-02T13:23:34;13.80;76.20
9057;DHT22;4563;54.756;9.400;2022-11-02T13:26:19;13.80;76.20
9057;DHT22;4563;54.756;9.400;2022-11-02T13:28:52;13.80;76.10
9057;DHT22;4563;54.756;9.400;2022-11-02T13:31:26;13.80;76.10
9057;DHT22;4563;54.756;9.400;2022-11-02T13:33:55;13.80;76.00
9057;DHT22;4563;54.756;9.400;2022-11-02T13:36:25;13.80;75.90
9057;DHT22;4563;54.756;9.400;2022-11-02T13:38:57;13.80;75.90
9057;DHT22;4563;54.756;9.400;2022-11-02T13:41:56;13.80;75.80
9057;DHT22;4563;54.756;9.400;2022-11-02T13:44:56;13.70;75.60
9057;DHT22;4563;54.756;9.400;2022-11-02T13:47:45;13.70;75.70
9057;DHT22;4563;54.756;9.400;2022-11-02T13:50:17;13.70;75.60
9057;DHT22;4563;54.756;9.400;2022-11-02T13:52:48;13.70;75.60
9057;DHT22;4563;54.756;9.400;2022-11-02T13:55:19;13.70;75.50
9057;DHT22;4563;54.756;9.400;2022-11-02T13:57:48;13.70;75.50
9057;DHT22;4563;54.756;9.400;2022-11-02T14:00:30;13.60;75.40
9057;DHT22;4563;54.756;9.400;2022-11-02T14:03:10;13.70;75.50
9057;DHT22;4563;54.756;9.400;2022-11-02T14:05:42;13.60;75.40
9057;DHT22;4563;54.756;9.400;2022-11-02T14:08:17;13.60;75.30
9057;DHT22;4563;54.756;9.400;2022-11-02T14:11:01;13.60;75.30
9057;DHT22;4563;54.756;9.400;2022-11-02T14:16:41;13.60;75.30
9057;DHT22;4563;54.756;9.400;2022-11-02T14:19:24;13.50;75.20
9057;DHT22;4563;54.756;9.400;2022-11-02T14:22:20;13.60;75.40
9057;DHT22;4563;54.756;9.400;2022-11-02T14:24:54;13.60;75.40
9057;DHT22;4563;54.756;9.400;2022-11-02T14:27:30;13.60;76.10
9057;DHT22;4563;54.756;9.400;2022-11-02T14:29:57;13.60;75.40
9057;DHT22;4563;54.756;9.400;2022-11-02T14:32:37;13.60;75.30
9057;DHT22;4563;54.756;9.400;2022-11-02T14:35:32;13.60;75.30
9057;DHT22;4563;54.756;9.400;2022-11-02T14:38:17;13.60;75.40
9057;DHT22;4563;54.756;9.400;2022-11-02T14:40:51;13.70;75.40
9057;DHT22;4563;54.756;9.400;2022-11-02T14:46:41;13.70;75.40
9057;DHT22;4563;54.756;9.400;2022-11-02T14:49:17;13.70;75.50
9057;DHT22;4563;54.756;9.400;2022-11-02T14:51:54;13.70;75.40
9057;DHT22;4563;54.756;9.400;2022-11-02T14:54:23;13.70;75.40
9057;DHT22;4563;54.756;9.400;2022-11-02T14:56:52;13.80;75.40
9057;DHT22;4563;54.756;9.400;2022-11-02T14:59:24;13.80;75.30
9057;DHT22;4563;54.756;9.400;2022-11-02T15:01:56;13.80;75.30
9057;DHT22;4563;54.756;9.400;2022-11-02T15:04:24;13.80;75.20
9057;DHT22;4563;54.756;9.400;2022-11-02T15:06:55;13.80;75.20
9057;DHT22;4563;54.756;9.400;2022-11-02T15:09:51;13.80;75.10
9057;DHT22;4563;54.756;9.400;2022-11-02T15:12:42;13.80;75.10
9057;DHT22;4563;54.756;9.400;2022-11-02T15:15:29;13.80;75.10
9057;DHT22;4563;54.756;9.400;2022-11-02T15:18:21;13.80;75.10
9057;DHT22;4563;54.756;9.400;2022-11-02T15:21:22;13.80;75.10
9057;DHT22;4563;54.756;9.400;2022-11-02T15:23:57;13.80;75.10
9057;DHT22;4563;54.756;9.400;2022-11-02T15:26:30;13.80;75.10
9057;DHT22;4563;54.756;9.400;2022-11-02T15:29:01;13.80;75.00
9057;DHT22;4563;54.756;9.400;2022-11-02T15:31:29;13.80;75.00
9057;DHT22;4563;54.756;9.400;2022-11-02T15:33:57;13.80;75.00
9057;DHT22;4563;54.756;9.400;2022-11-02T15:36:29;13.80;75.00
9057;DHT22;4563;54.756;9.400;2022-11-02T15:39:01;13.80;75.00
9057;DHT22;4563;54.756;9.400;2022-11-02T15:41:36;13.80;75.00
9057;DHT22;4563;54.756;9.400;2022-11-02T15:44:18;13.80;75.00
9057;DHT22;4563;54.756;9.400;2022-11-02T15:46:57;13.70;75.00
9057;DHT22;4563;54.756;9.400;2022-11-02T15:49:40;13.70;74.90
9057;DHT22;4563;54.756;9.400;2022-11-02T15:52:16;13.70;75.00
9057;DHT22;4563;54.756;9.400;2022-11-02T15:54:57;13.70;75.10
9057;DHT22;4563;54.756;9.400;2022-11-02T15:57:35;13.70;75.10
9057;DHT22;4563;54.756;9.400;2022-11-02T16:00:14;13.60;75.00
9057;DHT22;4563;54.756;9.400;2022-11-02T16:02:45;13.60;75.00
9057;DHT22;4563;54.756;9.400;2022-11-02T16:05:17;13.70;75.10
9057;DHT22;4563;54.756;9.400;2022-11-02T16:07:46;13.60;75.00
9057;DHT22;4563;54.756;9.400;2022-11-02T16:10:23;13.60;75.00
9057;DHT22;4563;54.756;9.400;2022-11-02T16:13:00;13.60;75.00
9057;DHT22;4563;54.756;9.400;2022-11-02T16:15:28;13.60;75.00
9057;DHT22;4563;54.756;9.400;2022-11-02T16:17:55;13.60;75.00
9057;DHT22;4563;54.756;9.400;2022-11-02T16:20:24;13.60;75.00
9057;DHT22;4563;54.756;9.400;2022-11-02T16:22:53;13.50;74.80
9057;DHT22;4563;54.756;9.400;2022-11-02T16:25:30;13.50;74.80
9057;DHT22;4563;54.756;9.400;2022-11-02T16:28:00;13.50;74.80
9057;DHT22;4563;54.756;9.400;2022-11-02T16:30:36;13.50;74.80
9057;DHT22;4563;54.756;9.400;2022-11-02T16:33:04;13.50;74.80
9057;DHT22;4563;54.756;9.400;2022-11-02T16:35:31;13.50;74.80
9057;DHT22;4563;54.756;9.400;2022-11-02T16:37:58;13.50;74.70
9057;DHT22;4563;54.756;9.400;2022-11-02T16:40:27;13.40;74.50
9057;DHT22;4563;54.756;9.400;2022-11-02T16:42:54;13.40;74.50
9057;DHT22;4563;54.756;9.400;2022-11-02T16:45:33;13.40;74.50